createdAt,value
2022-09-21T00:00:00.610Z,100436.48
2022-09-21T00:03:05.039Z,100439.36
2022-09-21T00:06:14.759Z,100436.35
2022-09-21T00:09:17.811Z,100439.84
2022-09-21T00:12:20.885Z,100440.23
2022-09-21T00:15:24.163Z,100444.52
2022-09-21T00:18:53.231Z,100445.67
2022-09-21T00:21:56.717Z,100446.30
2022-09-21T00:24:59.892Z,100444.32
2022-09-21T00:29:17.389Z,100449.23
2022-09-21T00:32:20.647Z,100451.77
2022-09-21T00:35:23.617Z,100450.23
2022-09-21T00:38:34.304Z,100452.98
2022-09-21T00:41:37.244Z,100450.21
2022-09-21T00:44:41.983Z,100454.45
2022-09-21T00:48:08.454Z,100451.93
2022-09-21T00:51:11.731Z,100457.48
2022-09-21T00:54:21.455Z,100459.98
2022-09-21T00:57:27.603Z,100452.86
2022-09-21T01:00:30.782Z,100452.65
2022-09-21T01:03:33.956Z,100450.54
2022-09-21T01:06:38.666Z,100454.58
2022-09-21T01:09:43.589Z,100452.56
2022-09-21T01:13:13.067Z,100458.55
2022-09-21T01:16:26.912Z,100461.62
2022-09-21T01:19:50.013Z,100464.04
2022-09-21T01:23:01.376Z,100469.91
2022-09-21T01:26:11.718Z,100472.02
2022-09-21T01:29:21.132Z,100474.13
2022-09-21T01:32:33.929Z,100476.95
2022-09-21T01:35:47.239Z,100477.11
2022-09-21T01:38:54.722Z,100479.15
2022-09-21T01:42:10.597Z,100481.36
2022-09-21T01:45:17.522Z,100482.99
2022-09-21T01:48:23.812Z,100486.52
2022-09-21T01:51:29.307Z,100483.38
2022-09-21T01:54:47.133Z,100485.12
2022-09-21T01:58:12.923Z,100489.08
2022-09-21T02:01:21.314Z,100488.57
2022-09-21T02:04:25.010Z,100489.48
2022-09-21T02:07:28.542Z,100487.07
2022-09-21T02:10:37.420Z,100489.04
2022-09-21T02:13:48.873Z,100488.73
2022-09-21T02:17:10.463Z,100490.80
2022-09-21T02:20:17.955Z,100492.07
2022-09-21T02:23:37.795Z,100491.56
2022-09-21T02:26:50.384Z,100493.40
2022-09-21T02:30:05.943Z,100496.17
2022-09-21T02:33:20.070Z,100502.13
2022-09-21T02:36:43.725Z,100504.80
2022-09-21T02:40:25.898Z,100509.95
2022-09-21T02:43:37.554Z,100508.30
2022-09-21T02:47:03.145Z,100507.88
2022-09-21T02:50:23.466Z,100513.38
2022-09-21T02:53:53.104Z,100514.64
2022-09-21T02:56:57.319Z,100511.30
2022-09-21T03:00:00.821Z,100515.39
2022-09-21T03:03:22.323Z,100517.23
2022-09-21T03:06:25.416Z,100520.86
2022-09-21T03:09:28.366Z,100523.59
2022-09-21T03:12:33.008Z,100527.77
2022-09-21T03:15:37.569Z,100528.19
2022-09-21T03:18:42.572Z,100528.45
2022-09-21T03:21:47.855Z,100526.30
2022-09-21T03:24:51.236Z,100528.98
2022-09-21T03:27:54.721Z,100526.33
2022-09-21T03:30:58.094Z,100523.77
2022-09-21T03:34:01.280Z,100522.48
2022-09-21T03:37:07.178Z,100519.09
2022-09-21T03:40:12.934Z,100521.92
2022-09-21T03:43:17.051Z,100530.21
2022-09-21T03:46:20.279Z,100527.88
2022-09-21T03:49:23.301Z,100529.57
2022-09-21T03:52:27.010Z,100524.81
2022-09-21T03:55:30.173Z,100529.95
2022-09-21T03:58:33.184Z,100530.19
2022-09-21T04:01:36.645Z,100537.77
2022-09-21T04:04:39.596Z,100537.99
2022-09-21T04:07:45.996Z,100535.64
2022-09-21T04:10:49.021Z,100539.96
2022-09-21T04:13:57.133Z,100540.44
2022-09-21T04:17:00.288Z,100539.77
2022-09-21T04:20:04.487Z,100545.67
2022-09-21T04:23:09.005Z,100550.30
2022-09-21T04:26:31.406Z,100546.96
2022-09-21T04:29:34.480Z,100548.75
2022-09-21T04:32:37.767Z,100548.71
2022-09-21T04:35:44.007Z,100549.67
2022-09-21T04:38:47.082Z,100549.41
2022-09-21T04:41:50.565Z,100550.50
2022-09-21T04:44:53.742Z,100554.89
2022-09-21T04:47:56.929Z,100557.61
2022-09-21T04:51:00.098Z,100560.13
2022-09-21T04:54:04.098Z,100561.56
2022-09-21T04:57:07.998Z,100552.45
2022-09-21T05:00:13.310Z,100559.98
2022-09-21T05:03:16.222Z,100561.36
2022-09-21T05:06:19.151Z,100563.92
2022-09-21T05:09:40.750Z,100565.68
2022-09-21T05:12:44.130Z,100571.02
2022-09-21T05:15:47.047Z,100575.01
2022-09-21T05:18:54.847Z,100576.55
2022-09-21T05:21:59.094Z,100577.09
2022-09-21T05:25:02.062Z,100576.81
2022-09-21T05:28:05.439Z,100580.39
2022-09-21T05:31:32.358Z,100578.09
2022-09-21T05:35:16.162Z,100580.59
2022-09-21T05:38:20.271Z,100582.90
2022-09-21T05:41:23.842Z,100584.58
2022-09-21T05:44:27.242Z,100589.89
2022-09-21T05:47:54.862Z,100592.11
2022-09-21T05:51:02.232Z,100596.02
2022-09-21T05:54:26.695Z,100594.67
2022-09-21T05:58:06.722Z,100595.05
2022-09-21T06:02:01.547Z,100600.84
2022-09-21T06:05:11.091Z,100598.04
2022-09-21T06:08:14.161Z,100603.45
2022-09-21T06:11:20.202Z,100606.50
2022-09-21T06:14:26.018Z,100609.61
2022-09-21T06:17:29.012Z,100613.04
2022-09-21T06:20:33.878Z,100613.85
2022-09-21T06:23:37.518Z,100614.34
2022-09-21T06:26:40.347Z,100615.63
2022-09-21T06:29:43.155Z,100618.95
2022-09-21T06:32:46.126Z,100621.17
2022-09-21T06:35:58.105Z,100624.92
2022-09-21T06:39:01.282Z,100630.42
2022-09-21T06:42:04.250Z,100630.25
2022-09-21T06:45:08.657Z,100632.59
2022-09-21T06:48:11.740Z,100634.58
2022-09-21T06:51:15.011Z,100639.81
2022-09-21T06:54:18.801Z,100637.30
2022-09-21T06:57:22.083Z,100636.84
2022-09-21T07:00:24.969Z,100635.67
2022-09-21T07:03:28.624Z,100639.73
2022-09-21T07:06:32.024Z,100637.35
2022-09-21T07:13:04.150Z,100642.19
2022-09-21T07:16:09.452Z,100645.81
2022-09-21T07:19:12.469Z,100642.83
2022-09-21T07:22:15.332Z,100647.09
2022-09-21T07:25:18.614Z,100649.40
2022-09-21T07:28:22.093Z,100652.66
2022-09-21T07:31:50.165Z,100653.77
2022-09-21T07:34:57.085Z,100649.34
2022-09-21T07:38:02.428Z,100649.45
2022-09-21T07:41:07.173Z,100655.58
2022-09-21T07:44:10.008Z,100655.79
2022-09-21T07:47:14.150Z,100657.60
2022-09-21T07:50:17.491Z,100651.39
2022-09-21T07:53:21.074Z,100651.23
2022-09-21T07:56:25.172Z,100649.42
2022-09-21T07:59:28.258Z,100653.98
2022-09-21T08:02:31.464Z,100656.05
2022-09-21T08:05:35.146Z,100658.89
2022-09-21T08:08:39.826Z,100660.96
2022-09-21T08:11:45.248Z,100660.29
2022-09-21T08:14:48.429Z,100657.23
2022-09-21T08:17:54.477Z,100659.88
2022-09-21T08:21:00.442Z,100665.48
2022-09-21T08:24:03.819Z,100661.95
2022-09-21T08:27:08.333Z,100665.02
2022-09-21T08:30:14.005Z,100670.00
2022-09-21T08:33:17.520Z,100671.95
2022-09-21T08:36:20.647Z,100671.84
2022-09-21T08:39:24.287Z,100674.44
2022-09-21T08:42:42.399Z,100678.94
2022-09-21T08:45:47.113Z,100680.88
2022-09-21T08:49:07.207Z,100678.73
2022-09-21T08:52:16.793Z,100676.29
2022-09-21T08:55:21.615Z,100679.20
2022-09-21T08:58:26.020Z,100680.59
2022-09-21T09:01:36.020Z,100677.86
2022-09-21T09:04:56.623Z,100678.16
2022-09-21T09:08:11.797Z,100680.70
2022-09-21T09:11:24.510Z,100678.77
2022-09-21T09:15:01.413Z,100682.06
2022-09-21T09:18:19.460Z,100675.98
2022-09-21T09:21:40.003Z,100671.33
2022-09-21T09:24:49.425Z,100674.52
2022-09-21T09:27:59.922Z,100671.58
2022-09-21T09:31:12.930Z,100666.26
2022-09-21T09:34:54.108Z,100667.48
2022-09-21T09:38:06.241Z,100666.30
2022-09-21T09:41:24.533Z,100669.14
2022-09-21T09:44:54.823Z,100669.38
2022-09-21T09:48:32.477Z,100667.02
2022-09-21T09:51:41.164Z,100666.67
2022-09-21T09:54:44.966Z,100657.48
2022-09-21T09:57:49.805Z,100657.47
2022-09-21T10:04:32.516Z,100657.71
2022-09-21T10:07:41.042Z,100658.27
2022-09-21T10:10:44.242Z,100662.35
2022-09-21T10:13:49.409Z,100649.95
2022-09-21T10:16:53.564Z,100652.63
2022-09-21T10:20:05.820Z,100645.23
2022-09-21T10:23:13.733Z,100640.80
2022-09-21T10:26:18.139Z,100646.42
2022-09-21T10:29:24.282Z,100650.23
2022-09-21T10:32:31.145Z,100647.31
2022-09-21T10:35:49.883Z,100641.13
2022-09-21T10:38:53.153Z,100636.25
2022-09-21T10:42:03.912Z,100632.27
2022-09-21T10:45:13.950Z,100637.71
2022-09-21T10:48:22.265Z,100636.46
2022-09-21T10:51:30.526Z,100632.19
2022-09-21T10:54:34.013Z,100630.39
2022-09-21T10:57:43.114Z,100630.06
2022-09-21T11:00:53.949Z,100628.58
2022-09-21T11:04:15.379Z,100614.66
2022-09-21T11:07:24.810Z,100621.02
2022-09-21T11:10:34.082Z,100622.89
2022-09-21T11:14:01.446Z,100626.75
2022-09-21T11:17:20.057Z,100621.95
2022-09-21T11:20:35.204Z,100626.52
2022-09-21T11:23:47.388Z,100633.05
2022-09-21T11:26:57.216Z,100628.48
2022-09-21T11:30:11.074Z,100636.45
2022-09-21T11:33:34.268Z,100639.14
2022-09-21T11:37:01.811Z,100648.67
2022-09-21T11:40:10.648Z,100647.33
2022-09-21T11:43:44.801Z,100646.99
2022-09-21T11:46:56.667Z,100639.39
2022-09-21T11:50:26.062Z,100633.00
2022-09-21T11:53:38.427Z,100628.22
2022-09-21T11:56:56.850Z,100625.31
2022-09-21T12:00:11.986Z,100619.84
2022-09-21T12:03:38.816Z,100619.66
2022-09-21T12:06:53.844Z,100612.23
2022-09-21T12:10:32.551Z,100608.36
2022-09-21T12:13:44.014Z,100606.56
2022-09-21T12:17:01.941Z,100602.71
2022-09-21T12:20:21.384Z,100601.05
2022-09-21T12:23:43.180Z,100601.58
2022-09-21T12:26:57.304Z,100604.20
2022-09-21T12:30:12.664Z,100604.54
2022-09-21T12:33:31.390Z,100602.44
2022-09-21T12:36:45.550Z,100603.14
2022-09-21T12:39:56.517Z,100599.69
2022-09-21T12:43:37.104Z,100594.08
2022-09-21T12:47:09.731Z,100591.33
2022-09-21T12:50:27.468Z,100590.65
2022-09-21T12:53:34.528Z,100585.70
2022-09-21T12:57:17.478Z,100584.10
2022-09-21T13:00:34.909Z,100585.32
2022-09-21T13:04:30.788Z,100588.23
2022-09-21T13:07:42.842Z,100585.31
2022-09-21T13:11:01.011Z,100587.85
2022-09-21T13:14:05.297Z,100588.34
2022-09-21T13:17:29.659Z,100586.66
2022-09-21T13:20:38.785Z,100577.64
2022-09-21T13:23:43.164Z,100587.20
2022-09-21T13:26:56.780Z,100587.19
2022-09-21T13:30:28.320Z,100585.64
2022-09-21T13:33:37.519Z,100584.77
2022-09-21T13:36:41.410Z,100580.04
2022-09-21T13:39:50.771Z,100575.55
2022-09-21T13:42:53.703Z,100571.90
2022-09-21T13:45:58.213Z,100571.30
2022-09-21T13:49:12.453Z,100572.95
2022-09-21T13:52:16.225Z,100571.91
2022-09-21T13:55:32.301Z,100569.59
2022-09-21T13:58:42.893Z,100562.91
2022-09-21T14:01:47.381Z,100559.42
2022-09-21T14:04:54.075Z,100561.08
2022-09-21T14:08:02.419Z,100555.83
2022-09-21T14:11:08.284Z,100565.03
2022-09-21T14:14:11.826Z,100567.48
2022-09-21T14:17:35.162Z,100561.60
2022-09-21T14:20:39.521Z,100569.34
2022-09-21T14:24:20.418Z,100572.46
2022-09-21T14:27:45.473Z,100568.14
2022-09-21T14:30:56.433Z,100567.80
2022-09-21T14:34:04.319Z,100568.02
2022-09-21T14:37:26.761Z,100563.38
2022-09-21T14:40:39.628Z,100556.16
2022-09-21T14:43:45.139Z,100552.05
2022-09-21T14:47:33.265Z,100553.80
2022-09-21T14:50:47.800Z,100557.05
2022-09-21T14:53:56.728Z,100557.92
2022-09-21T14:57:00.498Z,100559.64
2022-09-21T15:00:35.754Z,100561.04
2022-09-21T15:03:53.636Z,100559.94
2022-09-21T15:07:27.188Z,100558.74
2022-09-21T15:10:53.053Z,100559.55
2022-09-21T15:14:06.796Z,100563.70
2022-09-21T15:17:28.185Z,100555.36
2022-09-21T15:20:32.801Z,100557.85
2022-09-21T15:23:40.308Z,100559.38
2022-09-21T15:26:43.962Z,100554.21
2022-09-21T15:29:51.256Z,100549.38
2022-09-21T15:32:59.869Z,100549.43
2022-09-21T15:36:05.082Z,100546.05
2022-09-21T15:39:23.176Z,100548.92
2022-09-21T15:42:26.058Z,100553.81
2022-09-21T15:45:54.908Z,100555.42
2022-09-21T15:49:01.575Z,100560.06
2022-09-21T15:52:13.460Z,100554.46
2022-09-21T15:55:21.722Z,100556.54
2022-09-21T15:58:37.430Z,100555.10
2022-09-21T16:01:42.949Z,100554.91
2022-09-21T16:04:52.388Z,100555.99
2022-09-21T16:08:31.209Z,100557.77
2022-09-21T16:11:38.095Z,100558.23
2022-09-21T16:14:53.967Z,100560.39
2022-09-21T16:18:01.759Z,100561.69
2022-09-21T16:21:13.934Z,100564.25
2022-09-21T16:24:20.102Z,100567.47
2022-09-21T16:27:31.022Z,100570.66
2022-09-21T16:30:54.308Z,100577.33
2022-09-21T16:34:01.697Z,100579.14
2022-09-21T16:37:24.871Z,100582.86
2022-09-21T16:40:29.105Z,100581.73
2022-09-21T16:43:44.622Z,100580.58
2022-09-21T16:46:55.710Z,100586.68
2022-09-21T16:50:12.875Z,100583.85
2022-09-21T16:53:16.259Z,100581.77
2022-09-21T16:56:19.644Z,100583.63
2022-09-21T16:59:23.585Z,100586.88
2022-09-21T17:02:26.547Z,100581.28
2022-09-21T17:05:29.791Z,100586.90
2022-09-21T17:08:32.962Z,100584.92
2022-09-21T17:11:35.833Z,100582.20
2022-09-21T17:14:46.184Z,100588.77
2022-09-21T17:17:50.619Z,100592.77
2022-09-21T17:20:53.758Z,100592.77
2022-09-21T17:23:56.621Z,100589.87
2022-09-21T17:26:59.698Z,100590.13
2022-09-21T17:30:11.884Z,100590.64
2022-09-21T17:33:15.276Z,100595.02
2022-09-21T17:36:19.172Z,100597.84
2022-09-21T17:39:24.410Z,100600.85
2022-09-21T17:42:28.768Z,100599.84
2022-09-21T17:45:39.228Z,100602.77
2022-09-21T17:48:43.022Z,100606.40
2022-09-21T17:52:08.328Z,100610.91
2022-09-21T17:55:13.440Z,100605.35
2022-09-21T17:58:34.913Z,100603.73
2022-09-21T18:01:42.040Z,100602.92
2022-09-21T18:04:46.688Z,100602.63
2022-09-21T18:07:51.307Z,100608.89
2022-09-21T18:11:15.970Z,100611.10
2022-09-21T18:14:37.973Z,100615.70
2022-09-21T18:17:44.319Z,100618.05
2022-09-21T18:21:03.164Z,100622.84
2022-09-21T18:24:30.967Z,100627.48
2022-09-21T18:27:35.969Z,100618.67
2022-09-21T18:30:47.400Z,100620.40
2022-09-21T18:33:59.055Z,100623.83
2022-09-21T18:37:25.468Z,100623.15
2022-09-21T18:40:40.739Z,100621.92
2022-09-21T18:44:29.625Z,100622.70
2022-09-21T18:47:54.399Z,100625.33
2022-09-21T18:51:19.065Z,100622.89
2022-09-21T18:54:24.298Z,100628.06
2022-09-21T18:57:32.578Z,100629.95
2022-09-21T19:00:36.928Z,100632.84
2022-09-21T19:03:43.089Z,100635.42
2022-09-21T19:07:24.273Z,100629.20
2022-09-21T19:11:04.797Z,100634.08
2022-09-21T19:14:14.934Z,100636.96
2022-09-21T19:17:39.817Z,100635.02
2022-09-21T19:20:55.058Z,100632.64
2022-09-21T19:24:07.037Z,100635.41
2022-09-21T19:27:43.469Z,100638.39
2022-09-21T19:30:53.481Z,100635.45
2022-09-21T19:33:59.037Z,100635.80
2022-09-21T19:37:05.723Z,100633.05
2022-09-21T19:40:11.992Z,100632.38
2022-09-21T19:43:40.291Z,100634.13
2022-09-21T19:47:24.500Z,100634.68
2022-09-21T19:50:40.862Z,100637.20
2022-09-21T19:54:03.294Z,100633.18
2022-09-21T19:57:37.069Z,100638.57
2022-09-21T20:00:42.309Z,100640.13
2022-09-21T20:03:47.056Z,100640.73
2022-09-21T20:06:57.143Z,100641.23
2022-09-21T20:10:27.585Z,100642.84
2022-09-21T20:14:07.453Z,100643.83
2022-09-21T20:17:20.468Z,100645.50
2022-09-21T20:20:26.623Z,100652.70
2022-09-21T20:23:30.592Z,100656.52
2022-09-21T20:26:34.289Z,100657.77
2022-09-21T20:29:38.573Z,100656.81
2022-09-21T20:32:45.889Z,100655.63
2022-09-21T20:35:50.285Z,100653.20
2022-09-21T20:38:54.150Z,100650.71
2022-09-21T20:42:01.114Z,100648.44
2022-09-21T20:45:05.110Z,100644.02
2022-09-21T20:48:15.574Z,100644.80
2022-09-21T20:51:18.321Z,100643.90
2022-09-21T20:54:23.445Z,100632.15
2022-09-21T20:57:26.313Z,100624.89
2022-09-21T21:00:29.702Z,100621.30
2022-09-21T21:03:32.873Z,100615.48
2022-09-21T21:06:35.737Z,100618.14
2022-09-21T21:09:38.611Z,100611.64
2022-09-21T21:12:42.603Z,100608.02
2022-09-21T21:15:45.882Z,100618.45
2022-09-21T21:18:48.858Z,100621.80
2022-09-21T21:21:51.724Z,100623.45
2022-09-21T21:24:55.218Z,100615.02
2022-09-21T21:27:59.513Z,100610.59
2022-09-21T21:31:02.381Z,100614.43
2022-09-21T21:34:05.764Z,100622.05
2022-09-21T21:37:09.451Z,100619.55
2022-09-21T21:40:12.654Z,100618.09
2022-09-21T21:43:15.604Z,100616.37
2022-09-21T21:46:18.529Z,100618.59
2022-09-21T21:49:21.544Z,100617.15
2022-09-21T21:52:24.516Z,100613.84
2022-09-21T21:55:28.512Z,100615.52
2022-09-21T21:58:31.586Z,100618.48
2022-09-21T22:01:34.489Z,100622.60
2022-09-21T22:04:37.531Z,100627.15
2022-09-21T22:07:41.220Z,100627.38
2022-09-21T22:10:51.198Z,100623.34
2022-09-21T22:13:55.875Z,100626.64
2022-09-21T22:16:59.562Z,100626.91
2022-09-21T22:20:02.729Z,100629.78
2022-09-21T22:23:05.699Z,100627.11
2022-09-21T22:26:12.458Z,100629.73
2022-09-21T22:29:17.454Z,100629.52
2022-09-21T22:32:20.551Z,100625.24
2022-09-21T22:35:24.652Z,100620.79
2022-09-21T22:38:30.276Z,100620.98
2022-09-21T22:41:38.899Z,100620.04
2022-09-21T22:44:41.856Z,100623.80
2022-09-21T22:47:46.980Z,100620.55
2022-09-21T22:50:50.152Z,100623.36
2022-09-21T22:53:53.331Z,100630.52
2022-09-21T22:56:56.305Z,100626.46
2022-09-21T22:59:59.579Z,100625.53
2022-09-21T23:03:02.657Z,100623.16
2022-09-21T23:06:07.973Z,100620.77
2022-09-21T23:09:17.401Z,100621.39
2022-09-21T23:12:20.679Z,100618.20
2022-09-21T23:15:23.759Z,100618.77
2022-09-21T23:18:26.789Z,100616.25
2022-09-21T23:21:31.361Z,100612.33
2022-09-21T23:24:34.412Z,100612.68
2022-09-21T23:27:37.485Z,100607.12
2022-09-21T23:30:41.077Z,100608.28
2022-09-21T23:33:52.434Z,100598.89
2022-09-21T23:36:55.609Z,100602.33
2022-09-21T23:39:59.195Z,100609.15
2022-09-21T23:43:02.378Z,100612.23
2022-09-21T23:46:07.012Z,100607.96
2022-09-21T23:49:10.966Z,100606.12
2022-09-21T23:52:13.848Z,100610.77
2022-09-21T23:55:16.934Z,100613.67
2022-09-21T23:58:21.022Z,100614.35
